Correntes, Brazil
Current Conditions -  °F | °C
As of 1:00 PM on Wednesday 22 Oct 2014 (Local Time) from SBMO Reporting Station
Scattered Clouds Scattered Clouds  
Wind Chill: 27°   Ceiling: Unl
Heat Index: 28°   Visibility: 6mi
Dew Point: 18°   Wind: 15mph
Humidity: 58%   Direction: 120°ESE
Pressure: 29.97"   Gusts: NA
Location:  9.13°S, 36.33°W
Report Text: SBMO 221600Z 12013KT 9999 SCT020 27/18 Q1015
Loading
Personal Weather Stations






























Interactive Weather Map
Tropical Storm Tracking
New forecast layout! Learn more

10-Day Weather Forecast

Advertisements
Track Severe Weather on mobile